Time;durP1;ratioP1;P1;durP2;ratioP2;P2;SDS_P1;SDS_P2;PMS_P1;PMS_P2;Temp;Humidity;BMP_temperature;BMP_pressure;BME280_temperature;BME280_humidity;BME280_pressure;Samples;Min_cycle;Max_cycle;Signal;HPM_P1;HPM_P2
2023/08/09 00:01:59;;;;;;;2.90;2.25;;;;;;;13.63;100.00;101170.00;6161809;23;20151;-69
2023/08/09 00:04:24;;;;;;;2.60;2.20;;;;;;;13.71;100.00;101175.13;6163707;23;20012;-69
2023/08/09 00:06:50;;;;;;;2.47;2.20;;;;;;;13.56;100.00;101163.13;6140458;23;20013;-69
2023/08/09 00:09:15;;;;;;;2.72;2.53;;;;;;;13.48;100.00;101173.78;6189488;23;20079;-69
2023/08/09 00:11:41;;;;;;;3.00;2.70;;;;;;;13.54;100.00;101177.22;6164639;23;20331;-69
2023/08/09 00:14:06;;;;;;;2.80;2.58;;;;;;;13.61;100.00;101184.09;6162841;23;20012;-69
2023/08/09 00:16:32;;;;;;;3.00;2.70;;;;;;;13.48;100.00;101189.56;6164205;23;20177;-69
2023/08/09 00:18:57;;;;;;;2.92;2.70;;;;;;;13.53;100.00;101176.31;6188192;23;20020;-69
2023/08/09 00:21:22;;;;;;;2.50;2.30;;;;;;;13.62;100.00;101189.34;6164750;23;20012;-69
2023/08/09 00:23:48;;;;;;;3.58;2.72;;;;;;;13.64;100.00;101177.00;6139216;23;20020;-69
2023/08/09 00:26:13;;;;;;;2.72;2.53;;;;;;;13.61;100.00;101174.41;6163728;23;20012;-69
2023/08/09 00:28:39;;;;;;;3.65;2.80;;;;;;;13.62;100.00;101180.53;6164514;23;20008;-69
2023/08/09 00:31:05;;;;;;;3.65;2.88;;;;;;;13.60;100.00;101175.31;6139744;23;20013;-69
2023/08/09 00:33:31;;;;;;;2.88;2.58;;;;;;;13.60;100.00;101183.22;6188022;23;20034;-69
2023/08/09 00:35:56;;;;;;;2.92;2.50;;;;;;;13.62;100.00;101188.44;6164605;23;20024;-69
2023/08/09 00:38:22;;;;;;;3.15;2.60;;;;;;;13.55;100.00;101186.81;6164445;23;20009;-69
2023/08/09 00:40:47;;;;;;;3.10;2.80;;;;;;;13.55;100.00;101190.34;6164564;23;20059;-68
2023/08/09 00:43:12;;;;;;;4.40;3.10;;;;;;;13.56;100.00;101185.94;6163834;23;20031;-69
2023/08/09 00:45:42;;;;;;;3.70;2.80;;;;;;;13.44;100.00;101181.78;6164025;23;20020;-69
2023/08/09 00:48:08;;;;;;;4.72;2.75;;;;;;;13.51;100.00;101183.41;6188479;23;20009;-69
2023/08/09 00:50:33;;;;;;;3.78;2.88;;;;;;;13.45;100.00;101179.09;6140168;23;20024;-69
2023/08/09 00:52:59;;;;;;;3.00;2.63;;;;;;;13.50;100.00;101181.66;6139516;23;20013;-69
2023/08/09 00:55:25;;;;;;;2.78;2.58;;;;;;;13.53;100.00;101173.69;6164722;23;20009;-69
2023/08/09 00:57:52;;;;;;;3.35;2.97;;;;;;;13.37;100.00;101180.16;6164778;23;20013;-69
2023/08/09 01:00:17;;;;;;;4.28;3.20;;;;;;;13.34;100.00;101186.28;6164238;23;20040;-69
2023/08/09 01:02:43;;;;;;;3.30;3.00;;;;;;;13.41;100.00;101190.59;6163269;23;20178;-69
2023/08/09 01:05:08;;;;;;;4.47;3.00;;;;;;;13.47;100.00;101193.09;6163842;23;20013;-69
2023/08/09 01:07:44;;;;;;;3.38;3.00;;;;;;;13.50;100.00;101202.72;6189569;23;20009;-69
2023/08/09 01:10:26;;;;;;;3.55;2.85;;;;;;;13.48;100.00;101192.22;6189728;23;20005;-69
2023/08/09 01:12:58;;;;;;;3.97;3.10;;;;;;;13.48;100.00;101199.25;6189060;23;20008;-69
2023/08/09 01:15:25;;;;;;;3.30;3.00;;;;;;;13.48;100.00;101194.84;6188542;23;20350;-69
2023/08/09 01:17:53;;;;;;;4.13;3.42;;;;;;;13.49;100.00;101196.59;6163541;23;20107;-69
2023/08/09 01:20:20;;;;;;;5.70;3.30;;;;;;;13.43;100.00;101201.97;6189104;23;20426;-69
2023/08/09 01:22:51;;;;;;;3.92;3.20;;;;;;;13.50;100.00;101205.34;6188502;23;20725;-69
2023/08/09 01:25:21;;;;;;;3.40;3.10;;;;;;;13.46;100.00;101196.66;6188974;23;20400;-69
2023/08/09 01:27:48;;;;;;;3.10;2.90;;;;;;;13.50;100.00;101202.72;6165208;23;20050;-69
2023/08/09 01:30:14;;;;;;;3.45;3.15;;;;;;;13.46;100.00;101201.91;6140485;23;20008;-69
2023/08/09 01:32:39;;;;;;;3.17;2.95;;;;;;;13.42;100.00;101194.97;6162631;23;20029;-69
2023/08/09 01:35:06;;;;;;;3.33;2.97;;;;;;;13.43;100.00;101199.34;6163556;23;20066;-69
2023/08/09 01:37:47;;;;;;;3.83;3.22;;;;;;;13.43;100.00;101201.97;6138995;23;20104;-70
2023/08/09 01:40:14;;;;;;;4.18;3.00;;;;;;;13.50;100.00;101195.69;6188739;23;20016;-70
2023/08/09 01:42:40;;;;;;;4.05;3.42;;;;;;;13.38;100.00;101200.31;6163978;23;20013;-70
2023/08/09 01:45:08;;;;;;;3.80;3.28;;;;;;;13.36;100.00;101205.63;6164024;23;20381;-70
2023/08/09 01:47:38;;;;;;;4.95;3.78;;;;;;;13.34;100.00;101202.97;6162830;23;20008;-70
2023/08/09 01:50:05;;;;;;;4.35;3.58;;;;;;;13.22;100.00;101203.19;6188906;23;20403;-70
2023/08/09 01:52:31;;;;;;;3.78;3.47;;;;;;;13.38;100.00;101208.22;6163822;23;20011;-70
2023/08/09 01:54:56;;;;;;;4.38;3.58;;;;;;;13.29;100.00;101203.94;6164141;23;20012;-70
2023/08/09 01:57:22;;;;;;;4.72;3.65;;;;;;;13.22;100.00;101202.31;6164234;23;20367;-70
2023/08/09 01:59:47;;;;;;;4.97;3.33;;;;;;;13.13;100.00;101209.47;6164014;23;20386;-70
2023/08/09 02:02:16;;;;;;;4.32;3.55;;;;;;;13.04;100.00;101212.22;6186357;23;20013;-70
2023/08/09 02:04:42;;;;;;;5.68;4.13;;;;;;;13.08;100.00;101213.91;6187781;23;20008;-70
2023/08/09 02:07:08;;;;;;;4.28;3.88;;;;;;;12.95;100.00;101215.00;6188692;23;20023;-70
2023/08/09 02:09:34;;;;;;;4.65;4.20;;;;;;;12.86;100.00;101223.03;6188311;23;20056;-70
2023/08/09 02:12:00;;;;;;;3.67;3.35;;;;;;;12.82;100.00;101217.81;6187439;23;20029;-70
2023/08/09 02:14:25;;;;;;;3.00;2.80;;;;;;;12.83;100.00;101218.72;6163676;23;20036;-70
2023/08/09 02:16:51;;;;;;;2.47;2.28;;;;;;;12.76;100.00;101217.91;6163904;23;20016;-70
2023/08/09 02:19:16;;;;;;;3.35;2.42;;;;;;;12.67;100.00;101220.69;6138036;23;20047;-70
2023/08/09 02:21:42;;;;;;;3.55;2.97;;;;;;;12.56;100.00;101220.84;6163312;23;20012;-70
2023/08/09 02:24:08;;;;;;;1.90;1.33;;;;;;;12.50;100.00;101227.94;6163388;23;20063;-70
2023/08/09 02:26:34;;;;;;;43.50;4.00;;;;;;;12.34;100.00;101238.66;6188340;23;20300;-70
2023/08/09 02:29:00;;;;;;;70.65;5.43;;;;;;;12.24;100.00;101227.41;6163847;23;20100;-70
2023/08/09 02:31:27;;;;;;;4.60;1.67;;;;;;;12.27;100.00;101227.34;6162593;23;20036;-70
2023/08/09 02:33:53;;;;;;;29.13;4.40;;;;;;;12.36;100.00;101241.28;6162651;23;20379;-70
2023/08/09 02:36:18;;;;;;;6.45;3.83;;;;;;;12.30;100.00;101235.19;6188294;23;20063;-70
2023/08/09 02:38:44;;;;;;;32.55;5.75;;;;;;;12.35;100.00;101236.91;6163313;23;20091;-70
2023/08/09 02:41:09;;;;;;;25.65;4.57;;;;;;;12.38;100.00;101229.81;6163132;23;20040;-70
2023/08/09 02:43:35;;;;;;;22.58;3.88;;;;;;;12.34;100.00;101240.41;6138850;23;20019;-70
2023/08/09 02:46:01;;;;;;;3.63;2.88;;;;;;;12.23;100.00;101248.44;6162951;23;20012;-70
2023/08/09 02:48:26;;;;;;;87.82;7.03;;;;;;;12.19;100.00;101249.34;6137818;23;20015;-70
2023/08/09 02:50:52;;;;;;;77.20;5.75;;;;;;;12.08;100.00;101253.00;6187970;23;20004;-70
2023/08/09 02:53:17;;;;;;;16.48;3.00;;;;;;;12.03;100.00;101252.16;6138832;23;20087;-70
2023/08/09 02:55:44;;;;;;;1.70;1.60;;;;;;;11.94;100.00;101260.16;6163494;23;20057;-70
2023/08/09 02:58:10;;;;;;;6.07;1.50;;;;;;;11.86;100.00;101254.94;6188040;23;20036;-70
2023/08/09 03:00:36;;;;;;;3.15;1.30;;;;;;;11.80;100.00;101252.38;6187185;23;20019;-70
2023/08/09 03:03:05;;;;;;;1.48;1.38;;;;;;;11.73;100.00;101261.19;6185771;23;20044;-70
2023/08/09 03:05:31;;;;;;;8.75;1.77;;;;;;;11.72;100.00;101268.22;6163105;23;20016;-70
2023/08/09 03:07:57;;;;;;;17.42;2.30;;;;;;;11.65;100.00;101269.16;6162999;23;20008;-70
2023/08/09 03:10:23;;;;;;;14.07;2.25;;;;;;;11.49;100.00;101265.78;6138280;23;20009;-70
2023/08/09 03:12:50;;;;;;;1.08;1.00;;;;;;;11.42;100.00;101272.84;6138634;23;20001;-70
2023/08/09 03:15:16;;;;;;;1.15;1.00;;;;;;;11.40;100.00;101279.84;6162876;23;20088;-70
2023/08/09 03:17:42;;;;;;;2.05;1.92;;;;;;;11.56;100.00;101264.84;6161640;23;20016;-70
2023/08/09 03:20:15;;;;;;;53.72;4.93;;;;;;;11.52;100.00;101272.75;6187826;23;20032;-70
2023/08/09 03:22:44;;;;;;;60.20;5.25;;;;;;;11.41;100.00;101260.59;6187775;23;20091;-70
2023/08/09 03:25:11;;;;;;;11.97;1.90;;;;;;;11.39;100.00;101264.13;6188369;23;20349;-70
2023/08/09 03:27:37;;;;;;;22.88;2.97;;;;;;;11.29;100.00;101265.94;6187721;23;20247;-70
2023/08/09 03:30:08;;;;;;;3.50;1.95;;;;;;;11.25;100.00;101277.38;6138457;23;20019;-70
2023/08/09 03:32:34;;;;;;;2.13;1.80;;;;;;;11.22;100.00;101280.00;6161716;23;20363;-70
2023/08/09 03:34:59;;;;;;;33.13;3.38;;;;;;;11.15;100.00;101280.91;6188180;23;20089;-70
2023/08/09 03:37:25;;;;;;;15.15;1.70;;;;;;;11.05;100.00;101291.47;6162593;23;20019;-70
2023/08/09 03:39:50;;;;;;;32.00;3.63;;;;;;;11.02;100.00;101299.38;6138777;23;20127;-70
2023/08/09 03:42:15;;;;;;;9.25;2.63;;;;;;;11.09;100.00;101298.44;6162410;23;20059;-70
2023/08/09 03:44:41;;;;;;;5.15;3.58;;;;;;;11.17;100.00;101298.38;6163009;23;20096;-70
2023/08/09 03:47:09;;;;;;;6.10;3.22;;;;;;;11.10;100.00;101309.81;6162453;23;20096;-70
2023/08/09 03:49:34;;;;;;;4.15;3.40;;;;;;;11.16;100.00;101304.53;6138077;23;20008;-70
2023/08/09 03:51:59;;;;;;;25.90;5.35;;;;;;;11.22;100.00;101316.72;6187837;23;20083;-70
2023/08/09 03:54:25;;;;;;;38.63;5.90;;;;;;;11.19;100.00;101306.25;6187887;23;20099;-70
2023/08/09 03:56:51;;;;;;;24.92;4.75;;;;;;;11.21;100.00;101309.75;6138746;23;20040;-70
2023/08/09 03:59:17;;;;;;;30.58;4.72;;;;;;;11.19;100.00;101301.00;6163177;23;20009;-70
2023/08/09 04:01:42;;;;;;;15.52;3.67;;;;;;;11.19;100.00;101307.13;6137950;23;20008;-70
2023/08/09 04:04:07;;;;;;;21.65;4.30;;;;;;;11.18;100.00;101320.25;6161966;23;20031;-70
2023/08/09 04:06:33;;;;;;;25.08;4.10;;;;;;;11.08;100.00;101325.56;6162212;23;20021;-70
2023/08/09 04:08:59;;;;;;;24.42;4.03;;;;;;;11.14;100.00;101321.16;6138159;23;20063;-70
2023/08/09 04:11:24;;;;;;;15.65;3.67;;;;;;;11.15;100.00;101315.91;6162684;23;20491;-70
2023/08/09 04:13:50;;;;;;;29.95;4.20;;;;;;;11.13;100.00;101329.91;6162501;23;20023;-70
2023/08/09 04:16:15;;;;;;;17.27;3.47;;;;;;;11.04;100.00;101321.19;6161849;23;20028;-70
2023/08/09 04:18:41;;;;;;;21.80;3.67;;;;;;;11.01;100.00;101323.84;6161435;23;20020;-70
2023/08/09 04:21:06;;;;;;;26.40;3.75;;;;;;;11.06;100.00;101331.69;6162119;23;20005;-70
2023/08/09 04:23:32;;;;;;;17.40;3.30;;;;;;;11.09;100.00;101329.94;6162719;23;20394;-70
2023/08/09 04:26:00;;;;;;;11.90;3.20;;;;;;;11.07;100.00;101328.19;6187657;23;20311;-70
2023/08/09 04:28:26;;;;;;;11.25;3.53;;;;;;;11.11;100.00;101334.31;6161519;23;20016;-70
2023/08/09 04:30:52;;;;;;;12.48;3.67;;;;;;;11.08;100.00;101333.41;6160593;23;20027;-70
2023/08/09 04:33:18;;;;;;;16.30;4.68;;;;;;;11.13;100.00;101333.38;6161809;23;20008;-70
2023/08/09 04:35:49;;;;;;;20.30;4.65;;;;;;;11.11;100.00;101336.94;6162039;23;20036;-70
2023/08/09 04:38:15;;;;;;;25.38;5.28;;;;;;;11.09;100.00;101337.78;6161394;23;20023;-70
2023/08/09 04:40:40;;;;;;;38.35;5.95;;;;;;;11.07;100.00;101334.28;6161367;23;20099;-70
2023/08/09 04:43:06;;;;;;;61.88;7.35;;;;;;;11.00;100.00;101340.44;6162815;23;20013;-70
2023/08/09 04:45:33;;;;;;;45.33;6.13;;;;;;;11.01;100.00;101343.97;6161609;23;20017;-70
2023/08/09 04:47:59;;;;;;;16.20;5.78;;;;;;;11.12;100.00;101350.03;6161891;23;20040;-70
2023/08/09 04:50:24;;;;;;;16.17;4.22;;;;;;;11.29;100.00;101359.53;6188347;23;20024;-70
2023/08/09 04:52:50;;;;;;;19.30;4.78;;;;;;;11.37;100.00;101358.59;6164078;23;20060;-70
2023/08/09 04:55:16;;;;;;;13.48;4.68;;;;;;;11.52;100.00;101362.00;6188876;23;20016;-70
2023/08/09 04:57:42;;;;;;;7.40;3.88;;;;;;;11.76;100.00;101353.91;6162757;23;20047;-69
2023/08/09 05:00:13;;;;;;;5.65;4.35;;;;;;;11.89;100.00;101346.81;6164375;23;20067;-69
2023/08/09 05:02:39;;;;;;;8.82;6.10;;;;;;;12.21;100.00;101350.03;6186744;23;20398;-69
2023/08/09 05:13:22;;;;;;;10.65;9.75;;;;;;;14.03;100.00;101366.81;6221027;22;20353;-67
2023/08/09 05:15:48;;;;;;;10.93;10.02;;;;;;;14.39;98.82;101374.06;6136907;23;20059;-67
2023/08/09 06:23:31;;;;;;;7.85;5.95;;;;;;;22.02;67.29;101432.88;6166433;22;1155090;-69
2023/08/09 06:25:56;;;;;;;7.63;6.93;;;;;;;22.36;64.08;101441.03;6155801;23;20047;-69
2023/08/09 06:28:41;;;;;;;7.82;7.03;;;;;;;22.86;68.31;101444.59;6190880;23;20048;-69
2023/08/09 06:31:06;;;;;;;8.50;7.60;;;;;;;22.02;65.01;101448.91;6218123;23;20643;-69
2023/08/09 06:33:37;;;;;;;8.10;7.32;;;;;;;21.55;66.36;101444.09;6192602;23;20020;-69
2023/08/09 06:36:04;;;;;;;9.65;8.70;;;;;;;21.51;67.13;101450.50;6194697;23;20008;-69
2023/08/09 06:38:30;;;;;;;9.15;8.27;;;;;;;21.83;65.95;101448.97;6167720;23;20069;-69
2023/08/09 06:40:56;;;;;;;9.85;8.85;;;;;;;22.01;65.50;101451.66;6193406;23;20008;-69
2023/08/09 06:43:21;;;;;;;11.30;10.30;;;;;;;21.74;65.55;101455.63;6193307;23;20014;-69
2023/08/09 06:45:48;;;;;;;11.57;10.57;;;;;;;21.54;66.58;101450.41;6168133;23;20046;-69
2023/08/09 06:48:14;;;;;;;11.35;10.25;;;;;;;20.81;67.43;101458.19;6168478;23;20012;-69
2023/08/09 06:50:40;;;;;;;11.90;10.70;;;;;;;20.47;70.80;101448.97;6218233;23;20456;-69
2023/08/09 06:53:05;;;;;;;11.90;10.85;;;;;;;20.22;70.52;101461.53;6218459;23;20008;-69
2023/08/09 06:55:31;;;;;;;12.75;11.52;;;;;;;19.82;72.73;101462.34;6193397;23;20073;-69
2023/08/09 06:57:56;;;;;;;14.10;12.80;;;;;;;19.17;75.01;101467.50;6193240;23;20334;-69
2023/08/09 07:00:24;;;;;;;15.45;13.93;;;;;;;18.94;75.99;101474.53;6167283;23;20004;-69
2023/08/09 07:02:50;;;;;;;15.90;14.60;;;;;;;19.17;76.21;101476.34;6167039;23;20046;-69
2023/08/09 07:05:18;;;;;;;15.20;13.73;;;;;;;19.34;76.00;101481.00;6192877;23;20023;-69
2023/08/09 07:07:54;;;;;;;16.25;14.30;;;;;;;19.26;78.62;101480.44;6217495;23;20008;-69
2023/08/09 07:10:19;;;;;;;14.65;13.45;;;;;;;19.34;77.03;101478.34;6217610;23;20011;-69
2023/08/09 07:12:45;;;;;;;16.33;14.88;;;;;;;18.86;77.94;101477.47;6167659;23;20008;-69
2023/08/09 07:15:11;;;;;;;15.82;14.52;;;;;;;18.81;80.17;101479.41;6192772;23;20019;-69
2023/08/09 07:17:37;;;;;;;17.15;15.65;;;;;;;18.56;79.71;101482.06;6191351;23;20028;-69
2023/08/09 07:20:08;;;;;;;17.40;16.00;;;;;;;18.56;78.69;101479.41;6192891;23;20069;-69
2023/08/09 07:22:34;;;;;;;17.98;16.50;;;;;;;18.89;81.67;101478.28;6193396;23;20091;-69
2023/08/09 07:25:00;;;;;;;18.98;16.75;;;;;;;19.36;81.57;101480.94;6217949;23;20042;-68
2023/08/09 07:27:26;;;;;;;17.42;15.73;;;;;;;19.61;77.95;101477.31;6217659;23;20008;-69
2023/08/09 07:29:53;;;;;;;18.27;16.67;;;;;;;20.30;80.32;101485.19;6167460;23;20453;-69
2023/08/09 07:32:18;;;;;;;18.10;16.35;;;;;;;20.69;79.22;101478.25;6216554;23;20004;-69
2023/08/09 07:34:43;;;;;;;16.30;15.00;;;;;;;21.35;74.85;101493.88;6167367;23;20012;-69
2023/08/09 07:37:09;;;;;;;16.85;15.45;;;;;;;21.30;74.68;101487.91;6167907;23;20008;-69
2023/08/09 07:39:34;;;;;;;16.85;15.35;;;;;;;21.31;74.81;101486.13;6167523;23;20065;-69
2023/08/09 07:42:01;;;;;;;16.40;14.98;;;;;;;21.10;70.68;101488.81;6167844;23;20008;-69
2023/08/09 07:44:26;;;;;;;15.38;13.77;;;;;;;20.93;72.19;101484.25;6192526;22;20112;-69
2023/08/09 07:46:52;;;;;;;14.13;12.65;;;;;;;20.76;71.74;101488.56;6166809;23;20019;-69
2023/08/09 07:49:17;;;;;;;14.13;12.73;;;;;;;20.66;73.99;101503.16;6166054;23;20012;-69
2023/08/09 07:51:42;;;;;;;13.32;12.13;;;;;;;20.53;73.30;101500.19;6165517;23;20012;-69
2023/08/09 07:54:08;;;;;;;14.40;12.90;;;;;;;20.70;77.49;101502.16;6192228;23;20020;-69
2023/08/09 07:56:34;;;;;;;13.70;12.43;;;;;;;20.69;73.73;101507.53;6217169;23;20149;-69
2023/08/09 07:59:00;;;;;;;13.27;11.45;;;;;;;20.65;75.09;101504.09;6191669;23;20012;-69
2023/08/09 08:01:25;;;;;;;14.00;12.60;;;;;;;20.67;75.17;101502.25;6191807;23;20388;-69
2023/08/09 08:03:50;;;;;;;13.05;11.50;;;;;;;20.65;74.36;101508.56;6216059;23;20008;-69
2023/08/09 08:06:18;;;;;;;12.32;11.13;;;;;;;20.61;74.44;101507.81;6167180;23;20088;-69
2023/08/09 08:08:45;;;;;;;12.75;11.45;;;;;;;20.67;74.59;101514.72;6167393;23;20469;-69
2023/08/09 08:11:11;;;;;;;14.77;12.68;;;;;;;20.71;77.05;101519.81;6217014;23;20042;-69
2023/08/09 08:13:36;;;;;;;12.95;11.75;;;;;;;20.65;75.42;101514.75;6191702;23;20015;-69
2023/08/09 08:16:04;;;;;;;12.75;11.55;;;;;;;21.01;75.20;101524.75;6216275;23;20099;-69
2023/08/09 08:18:32;;;;;;;16.02;10.63;;;;;;;20.88;73.39;101524.41;6191423;23;20008;-69
2023/08/09 08:20:59;;;;;;;19.63;15.40;;;;;;;20.62;73.87;101520.22;6167879;23;20119;-69
2023/08/09 08:23:27;;;;;;;13.15;11.75;;;;;;;20.54;74.89;101530.31;6192603;23;20020;-69
2023/08/09 08:25:55;;;;;;;12.20;11.10;;;;;;;20.38;74.68;101538.94;6218670;23;20008;-69
2023/08/09 08:28:21;;;;;;;13.75;12.35;;;;;;;20.37;72.07;101537.22;6170095;23;20031;-69
2023/08/09 08:30:47;;;;;;;12.10;10.90;;;;;;;20.31;73.24;101541.94;6168670;23;20008;-69
2023/08/09 08:33:13;;;;;;;11.90;10.65;;;;;;;20.34;74.59;101539.13;6168512;23;20465;-69
2023/08/09 08:35:43;;;;;;;13.75;9.85;;;;;;;20.31;74.33;101545.44;6193142;23;20031;-67
2023/08/09 08:38:09;;;;;;;;;;;;;;;20.73;74.40;101546.41;6195269;23;20016;-67
2023/08/09 08:40:34;;;;;;;10.27;9.18;;;;;;;20.10;71.99;101546.34;6218523;23;19910;-67
2023/08/09 08:43:00;;;;;;;11.93;10.82;;;;;;;20.00;75.74;101540.53;6218504;23;20015;-67
2023/08/09 08:45:25;;;;;;;12.77;10.70;;;;;;;20.10;77.41;101551.66;6192779;23;20008;-66
2023/08/09 08:47:51;;;;;;;12.95;9.88;;;;;;;20.13;75.19;101548.88;6192777;23;20066;-67
2023/08/09 08:50:17;;;;;;;8.25;7.38;;;;;;;20.11;71.86;101566.69;6193805;23;20016;-67
2023/08/09 08:52:46;;;;;;;8.45;7.20;;;;;;;20.12;73.27;101563.13;6193657;23;20031;-67
2023/08/09 08:55:12;;;;;;;7.85;7.05;;;;;;;19.98;70.86;101569.84;6218458;23;20012;-67
2023/08/09 08:57:39;;;;;;;8.90;8.00;;;;;;;19.94;74.19;101562.03;6193801;23;20393;-67
2023/08/09 09:00:16;;;;;;;9.85;8.93;;;;;;;20.17;73.70;101561.13;6193673;23;20008;-67
2023/08/09 09:02:45;;;;;;;9.48;8.43;;;;;;;20.12;70.57;101565.78;6195120;23;20090;-67
2023/08/09 09:05:13;;;;;;;9.07;8.13;;;;;;;20.06;71.76;101566.88;6218166;23;20023;-67
2023/08/09 09:07:41;;;;;;;7.88;7.07;;;;;;;20.06;73.67;101570.41;6217892;23;20247;-67
2023/08/09 09:10:09;;;;;;;8.30;7.50;;;;;;;20.00;73.07;101569.81;6218639;23;20011;-67
2023/08/09 09:12:37;;;;;;;8.95;7.47;;;;;;;20.12;73.55;101569.28;6193966;23;20005;-67
2023/08/09 09:15:04;;;;;;;9.30;8.05;;;;;;;20.20;74.03;101571.63;6193384;23;20109;-67
2023/08/09 09:17:38;;;;;;;9.10;8.13;;;;;;;20.18;74.62;101573.50;6192121;23;20016;-67
2023/08/09 09:20:10;;;;;;;9.45;7.47;;;;;;;20.05;70.78;101576.66;6218649;23;20008;-66
2023/08/09 09:22:35;;;;;;;9.68;7.80;;;;;;;20.38;73.88;101578.88;6217927;23;20100;-67
2023/08/09 09:25:02;;;;;;;9.43;8.15;;;;;;;20.38;73.70;101583.34;6192811;23;20040;-67
2023/08/09 09:27:32;;;;;;;11.13;8.00;;;;;;;20.49;73.82;101588.22;6193692;23;20103;-67
2023/08/09 09:30:11;;;;;;;6.25;5.65;;;;;;;20.27;67.41;101586.44;6193602;23;20039;-67
2023/08/09 09:32:38;;;;;;;6.05;5.35;;;;;;;20.22;70.94;101594.59;6193722;23;20034;-67
2023/08/09 09:35:03;;;;;;;8.30;5.82;;;;;;;20.29;72.20;101592.56;6192523;23;20089;-67
2023/08/09 09:37:29;;;;;;;7.63;5.78;;;;;;;20.56;72.92;101595.88;6192928;23;20430;-67
2023/08/09 09:39:55;;;;;;;7.30;5.93;;;;;;;20.34;72.77;101598.59;6193606;23;20012;-67
2023/08/09 09:42:32;;;;;;;8.60;4.95;;;;;;;20.16;70.15;101594.00;6193148;23;20042;-67
2023/08/09 09:45:07;;;;;;;5.30;4.78;;;;;;;20.30;70.55;101591.66;6192467;23;20039;-67
2023/08/09 09:47:34;;;;;;;7.05;5.00;;;;;;;20.30;70.46;101596.97;6167649;23;20012;-67
2023/08/09 09:50:01;;;;;;;6.88;4.60;;;;;;;20.34;69.96;101592.38;6218340;23;20020;-67
2023/08/09 09:52:28;;;;;;;8.13;4.78;;;;;;;20.25;68.51;101594.47;6193321;23;20460;-67
2023/08/09 09:54:56;;;;;;;8.00;4.28;;;;;;;20.14;67.72;101595.84;6218014;23;20014;-66
2023/08/09 09:57:21;;;;;;;7.07;5.10;;;;;;;20.08;69.40;101595.19;6218155;23;20019;-67
2023/08/09 09:59:47;;;;;;;7.40;5.68;;;;;;;20.06;69.67;101594.34;6193256;23;20008;-67
2023/08/09 10:02:13;;;;;;;6.05;5.43;;;;;;;20.07;72.08;101587.25;6192126;23;20042;-67
2023/08/09 10:04:40;;;;;;;6.53;4.40;;;;;;;20.29;71.68;101589.91;6191837;23;20099;-66
2023/08/09 10:07:07;;;;;;;5.80;4.40;;;;;;;20.28;69.84;101590.81;6168200;23;20012;-67
2023/08/09 10:09:34;;;;;;;6.05;4.15;;;;;;;20.24;69.22;101581.22;6168642;23;20087;-67
2023/08/09 10:12:03;;;;;;;6.32;3.95;;;;;;;20.23;67.15;101587.50;6192761;23;20015;-67
2023/08/09 10:14:31;;;;;;;5.73;3.87;;;;;;;20.12;67.65;101585.25;6193474;22;20090;-67
2023/08/09 10:16:59;;;;;;;4.57;3.58;;;;;;;20.10;69.54;101588.91;6192589;23;20036;-67
2023/08/09 10:19:27;;;;;;;5.28;4.40;;;;;;;20.34;72.70;101587.06;6191534;23;20503;-67
2023/08/09 10:21:54;;;;;;;5.30;4.45;;;;;;;20.34;68.87;101574.63;6217788;23;20154;-67
2023/08/09 10:24:20;;;;;;;7.03;5.00;;;;;;;20.48;69.27;101582.03;6192399;22;20340;-67
2023/08/09 10:26:49;;;;;;;5.55;4.60;;;;;;;20.65;70.24;101581.31;6192855;23;20015;-67
2023/08/09 10:29:24;;;;;;;6.70;4.63;;;;;;;21.02;71.33;101574.44;6217440;23;20008;-67
2023/08/09 10:31:53;;;;;;;6.93;4.97;;;;;;;21.12;70.76;101588.22;6192738;23;20422;-67
2023/08/09 10:34:41;;;;;;;6.95;5.07;;;;;;;21.19;67.54;101594.13;6216618;22;20043;-67
2023/08/09 10:37:09;;;;;;;7.20;5.30;;;;;;;20.89;66.08;101599.91;6218146;23;20374;-67
2023/08/09 10:39:36;;;;;;;6.85;5.32;;;;;;;20.64;67.08;101600.88;6192966;23;20107;-66
2023/08/09 10:42:04;;;;;;;8.20;5.88;;;;;;;20.83;70.50;101594.81;6216920;23;20005;-67
2023/08/09 10:44:42;;;;;;;6.50;5.40;;;;;;;20.74;69.38;101607.56;6216176;22;20410;-68
2023/08/09 10:47:24;;;;;;;7.65;5.95;;;;;;;20.96;70.00;101600.47;6216873;23;20400;-68
2023/08/09 10:49:53;;;;;;;7.53;6.60;;;;;;;20.89;65.71;101599.91;6217418;23;20062;-68
2023/08/09 10:52:19;;;;;;;8.00;6.85;;;;;;;21.02;65.58;101593.09;6217014;23;20008;-68
2023/08/09 10:54:45;;;;;;;8.13;7.15;;;;;;;21.11;66.09;101599.81;6192189;23;20069;-68
2023/08/09 10:57:12;;;;;;;8.30;7.10;;;;;;;21.20;68.29;101596.72;6215800;23;20004;-68
2023/08/09 10:59:39;;;;;;;8.20;6.78;;;;;;;21.09;68.09;101597.22;6167730;23;20012;-69
2023/08/09 11:02:07;;;;;;;6.88;6.18;;;;;;;20.91;67.97;101598.00;6191625;23;20103;-69
2023/08/09 11:04:34;;;;;;;6.25;5.65;;;;;;;21.00;68.40;101591.41;6165723;22;20015;-68
2023/08/09 11:07:02;;;;;;;6.85;5.57;;;;;;;21.11;70.88;101591.81;6217405;23;20004;-68
2023/08/09 11:09:29;;;;;;;7.78;5.93;;;;;;;21.28;68.19;101588.41;6216397;23;20016;-68
2023/08/09 11:11:55;;;;;;;6.82;5.55;;;;;;;21.16;63.85;101584.50;6192203;23;20030;-67
2023/08/09 11:14:22;;;;;;;6.45;4.88;;;;;;;21.09;67.16;101591.03;6190990;22;20418;-67
2023/08/09 11:16:49;;;;;;;7.05;5.43;;;;;;;21.07;67.64;101591.06;6215264;23;20084;-67
2023/08/09 11:19:17;;;;;;;4.97;4.22;;;;;;;21.20;64.65;101590.53;6189607;23;20030;-67
2023/08/09 11:21:54;;;;;;;5.50;4.82;;;;;;;21.21;64.83;101595.81;6217335;23;20157;-67
2023/08/09 11:24:22;;;;;;;8.20;3.85;;;;;;;21.14;65.44;101594.34;6216000;22;20019;-67
2023/08/09 11:26:55;;;;;;;5.32;3.92;;;;;;;21.15;63.47;101592.53;6217376;23;20008;-67
2023/08/09 11:29:22;;;;;;;4.70;3.80;;;;;;;21.12;64.92;101598.88;6217366;23;20008;-67
2023/08/09 11:31:50;;;;;;;5.95;4.70;;;;;;;21.14;65.88;101593.50;6216989;23;20012;-67
2023/08/09 11:34:18;;;;;;;5.70;5.20;;;;;;;20.93;63.15;101591.69;6215930;22;20007;-67
2023/08/09 11:36:46;;;;;;;6.07;3.53;;;;;;;20.88;64.54;101595.50;6217192;23;20020;-67
2023/08/09 11:39:13;;;;;;;4.90;3.70;;;;;;;20.81;63.72;101591.34;6192263;23;20382;-68
2023/08/09 11:41:46;;;;;;;6.13;4.32;;;;;;;21.00;64.86;101602.94;6192472;23;20027;-67
2023/08/09 11:44:13;;;;;;;5.10;4.25;;;;;;;21.14;66.54;101588.16;6216391;23;20012;-68
2023/08/09 11:46:40;;;;;;;3.50;3.13;;;;;;;21.26;60.36;101592.91;6191905;23;20047;-67
2023/08/09 11:49:07;;;;;;;4.55;3.40;;;;;;;21.27;60.20;101600.84;6191754;23;20047;-67
2023/08/09 11:51:35;;;;;;;4.75;3.38;;;;;;;21.37;60.79;101593.31;6217290;23;20012;-67
2023/08/09 11:54:01;;;;;;;6.07;3.67;;;;;;;21.28;59.77;101597.25;6217439;23;20012;-67
2023/08/09 11:56:37;;;;;;;4.25;2.90;;;;;;;21.27;60.97;101598.19;6191631;23;20457;-67
2023/08/09 11:59:05;;;;;;;5.75;3.00;;;;;;;21.39;62.68;101602.13;6191953;23;20070;-67
2023/08/09 12:01:39;;;;;;;3.03;2.17;;;;;;;21.31;58.77;101606.91;6216729;23;20008;-67
2023/08/09 12:04:09;;;;;;;3.72;2.22;;;;;;;21.18;58.11;101609.28;6216399;23;20095;-67
2023/08/09 12:06:37;;;;;;;3.83;2.35;;;;;;;21.20;60.41;101611.88;6216687;23;20013;-67
2023/08/09 12:09:36;;;;;;;3.83;2.53;;;;;;;21.32;63.10;101616.66;6217262;23;20031;-67
2023/08/09 12:12:25;;;;;;;3.40;2.65;;;;;;;21.14;59.84;101623.66;6217736;23;20043;-67
2023/08/09 12:14:52;;;;;;;5.20;2.63;;;;;;;21.13;63.03;101624.56;6195880;23;20012;-67
2023/08/09 12:17:24;;;;;;;3.65;2.60;;;;;;;21.02;60.59;101627.72;6216447;23;20389;-67
2023/08/09 12:19:56;;;;;;;4.38;2.67;;;;;;;21.07;63.22;101628.38;6216254;23;20008;-67
2023/08/09 12:22:22;;;;;;;4.63;3.17;;;;;;;21.14;63.18;101622.81;6216685;23;20073;-67
2023/08/09 12:24:48;;;;;;;4.30;2.85;;;;;;;21.30;63.97;101615.84;6216594;23;20083;-67
2023/08/09 12:27:15;;;;;;;3.38;2.80;;;;;;;21.28;62.27;101618.59;6166932;23;20442;-68
2023/08/09 12:29:42;;;;;;;3.50;2.90;;;;;;;21.34;60.94;101616.59;6216516;23;20134;-67
2023/08/09 12:32:08;;;;;;;3.67;2.72;;;;;;;21.41;62.00;101626.91;6165383;23;20018;-67